createdAt,value
2017-05-08T00:02:12.685Z,79.00
2017-05-08T00:04:41.816Z,78.70
2017-05-08T00:07:11.608Z,78.10
2017-05-08T00:09:40.654Z,78.20
2017-05-08T00:12:09.721Z,78.60
2017-05-08T00:14:38.762Z,78.30
2017-05-08T00:17:07.824Z,78.30
2017-05-08T00:19:36.878Z,79.10
2017-05-08T00:22:05.945Z,79.30
2017-05-08T00:24:35.083Z,79.80
2017-05-08T00:27:04.880Z,80.30
2017-05-08T00:29:33.925Z,79.70
2017-05-08T00:32:02.988Z,79.90
2017-05-08T00:34:32.785Z,79.40
2017-05-08T00:37:01.845Z,79.60
2017-05-08T00:39:31.189Z,80.00
2017-05-08T00:42:00.992Z,79.60
2017-05-08T00:44:30.029Z,80.20
2017-05-08T00:46:59.223Z,79.50
2017-05-08T00:49:28.254Z,78.70
2017-05-08T00:51:57.399Z,78.80
2017-05-08T00:54:27.187Z,80.60
2017-05-08T00:56:57.111Z,79.70
2017-05-08T00:59:26.917Z,78.80
2017-05-08T01:01:56.702Z,78.30
2017-05-08T01:04:25.830Z,78.10
2017-05-08T01:06:55.604Z,79.30
2017-05-08T01:09:24.678Z,78.50
2017-05-08T01:11:53.732Z,79.20
2017-05-08T01:14:23.533Z,79.30
2017-05-08T01:16:53.314Z,79.30
2017-05-08T01:19:22.380Z,80.10
2017-05-08T01:21:51.420Z,79.90
2017-05-08T01:24:20.495Z,78.90
2017-05-08T01:26:49.636Z,79.50
2017-05-08T01:29:18.661Z,79.20
2017-05-08T01:31:47.813Z,78.40
2017-05-08T01:34:17.595Z,78.60
2017-05-08T01:36:46.652Z,78.90
2017-05-08T01:39:15.713Z,79.50
2017-05-08T01:41:45.520Z,79.40
2017-05-08T01:44:14.558Z,79.40
2017-05-08T01:46:43.629Z,79.40
2017-05-08T01:49:12.668Z,79.00
2017-05-08T01:51:41.725Z,80.30
2017-05-08T01:54:10.749Z,79.90
2017-05-08T01:56:39.895Z,79.90
2017-05-08T01:59:09.687Z,79.20
2017-05-08T02:01:38.809Z,78.40
2017-05-08T02:04:08.822Z,78.40
2017-05-08T02:06:38.612Z,78.90
2017-05-08T02:09:07.649Z,78.80
2017-05-08T02:11:36.698Z,79.00
2017-05-08T02:14:05.745Z,79.30
2017-05-08T02:16:34.771Z,79.30
2017-05-08T02:19:03.828Z,79.10
2017-05-08T02:21:32.857Z,79.00
2017-05-08T02:24:01.916Z,79.00
2017-05-08T02:26:30.947Z,79.10
2017-05-08T02:29:00.012Z,79.00
2017-05-08T02:31:29.032Z,79.30
2017-05-08T02:33:58.073Z,79.70
2017-05-08T02:36:27.845Z,78.90
2017-05-08T02:38:56.900Z,79.50
2017-05-08T02:41:25.967Z,78.80
2017-05-08T02:43:55.790Z,78.40
2017-05-08T02:46:24.865Z,77.40
2017-05-08T02:48:54.677Z,77.30
2017-05-08T02:51:24.473Z,76.80
2017-05-08T02:53:53.518Z,77.50
2017-05-08T02:56:22.577Z,77.80
2017-05-08T02:58:52.362Z,76.50
2017-05-08T03:01:21.412Z,76.80
2017-05-08T03:03:50.454Z,78.40
2017-05-08T03:06:19.497Z,78.60
2017-05-08T03:08:48.534Z,78.50
2017-05-08T03:11:17.589Z,77.70
2017-05-08T03:13:46.641Z,78.20
2017-05-08T03:16:15.684Z,79.20
2017-05-08T03:18:44.742Z,77.90
2017-05-08T03:21:14.664Z,76.80
2017-05-08T03:23:44.439Z,75.60
2017-05-08T03:26:13.509Z,75.50
2017-05-08T03:28:42.558Z,75.20
2017-05-08T03:31:12.338Z,74.60
2017-05-08T03:33:41.465Z,75.50
2017-05-08T03:36:11.251Z,75.80
2017-05-08T03:38:40.301Z,76.40
2017-05-08T03:41:09.373Z,77.30
2017-05-08T03:43:38.459Z,78.20
2017-05-08T03:46:08.272Z,78.60
2017-05-08T03:48:38.070Z,78.80
2017-05-08T03:51:07.108Z,79.10
2017-05-08T03:53:36.181Z,79.30
2017-05-08T03:56:05.954Z,79.20
2017-05-08T03:58:35.023Z,78.80
2017-05-08T04:01:04.059Z,78.90
2017-05-08T04:03:33.116Z,78.90
2017-05-08T04:06:02.147Z,79.50
2017-05-08T04:08:31.186Z,79.50
2017-05-08T04:11:00.240Z,79.20
2017-05-08T04:13:29.277Z,79.70
2017-05-08T04:15:58.332Z,79.60
2017-05-08T04:18:27.352Z,79.70
2017-05-08T04:20:56.410Z,78.30
2017-05-08T04:23:25.453Z,77.80
2017-05-08T04:25:54.619Z,78.70
2017-05-08T04:28:23.630Z,77.10
2017-05-08T04:30:52.676Z,77.50
2017-05-08T04:33:21.750Z,76.60
2017-05-08T04:35:50.818Z,76.50
2017-05-08T04:38:19.851Z,76.70
2017-05-08T04:40:48.898Z,76.30
2017-05-08T04:43:17.955Z,76.50
2017-05-08T04:45:46.997Z,76.60
2017-05-08T04:48:16.065Z,76.90
2017-05-08T04:50:45.849Z,77.10
2017-05-08T04:53:14.883Z,77.50
2017-05-08T04:55:43.979Z,77.30
2017-05-08T04:58:13.142Z,77.70
2017-05-08T05:00:42.214Z,78.10
2017-05-08T05:03:11.346Z,77.70
2017-05-08T05:05:41.177Z,77.30
2017-05-08T05:08:10.926Z,78.10
2017-05-08T05:10:40.017Z,78.70
2017-05-08T05:13:09.075Z,79.60
2017-05-08T05:15:38.116Z,80.50
2017-05-08T05:18:07.162Z,82.00
2017-05-08T05:20:36.296Z,82.80
2017-05-08T05:23:05.349Z,82.80
2017-05-08T05:25:34.381Z,83.80
2017-05-08T05:28:03.445Z,83.60
2017-05-08T05:30:32.499Z,83.90
2017-05-08T05:33:02.342Z,84.20
2017-05-08T05:35:32.130Z,84.90
2017-05-08T05:38:01.933Z,85.20
2017-05-08T05:40:31.001Z,86.20
2017-05-08T05:43:00.048Z,86.10
2017-05-08T05:45:29.883Z,85.60
2017-05-08T05:47:58.930Z,85.50
2017-05-08T05:50:27.992Z,84.90
2017-05-08T05:52:57.050Z,84.40
2017-05-08T05:55:26.838Z,84.90
2017-05-08T05:57:55.896Z,83.70
2017-05-08T06:00:24.940Z,84.90
2017-05-08T06:02:53.975Z,83.70
2017-05-08T06:05:23.005Z,83.70
2017-05-08T06:07:52.033Z,83.70
2017-05-08T06:10:21.086Z,83.50
2017-05-08T06:12:50.124Z,83.90
2017-05-08T06:15:19.202Z,84.60
2017-05-08T06:17:48.959Z,83.60
2017-05-08T06:20:18.012Z,83.30
2017-05-08T06:22:47.834Z,82.90
2017-05-08T06:25:17.613Z,81.60
2017-05-08T06:27:46.678Z,80.50
2017-05-08T06:30:15.703Z,80.40
2017-05-08T06:32:44.733Z,80.40
2017-05-08T06:35:13.762Z,80.10
2017-05-08T06:37:42.815Z,77.60
2017-05-08T06:40:11.893Z,76.00
2017-05-08T06:42:41.786Z,75.80
2017-05-08T06:45:10.833Z,74.50
2017-05-08T06:47:39.905Z,73.10
2017-05-08T06:50:09.685Z,70.60
2017-05-08T06:52:38.757Z,70.50
2017-05-08T06:55:07.901Z,70.20
2017-05-08T06:57:37.695Z,70.10
2017-05-08T07:00:07.497Z,69.90
2017-05-08T07:02:36.572Z,68.90
2017-05-08T07:05:05.604Z,69.20
2017-05-08T07:07:35.389Z,69.60
2017-05-08T07:10:04.442Z,69.10
2017-05-08T07:12:33.490Z,68.60
2017-05-08T07:15:02.551Z,67.40
2017-05-08T07:17:31.701Z,65.60
2017-05-08T07:20:01.489Z,65.80
2017-05-08T07:22:30.552Z,64.90
2017-05-08T07:24:59.607Z,62.40
2017-05-08T07:27:28.818Z,62.40
2017-05-08T07:29:57.858Z,62.20
2017-05-08T07:32:26.938Z,63.20
2017-05-08T07:34:56.087Z,62.10
2017-05-08T07:37:25.872Z,62.50
2017-05-08T07:39:54.923Z,62.70
2017-05-08T07:42:23.959Z,62.80
2017-05-08T07:44:53.013Z,63.10
2017-05-08T07:47:22.045Z,64.50
2017-05-08T07:49:51.173Z,65.00
2017-05-08T07:52:20.935Z,65.90
2017-05-08T07:54:50.073Z,65.20
2017-05-08T07:57:19.123Z,65.20
2017-05-08T07:59:48.157Z,63.90
2017-05-08T08:02:17.954Z,64.90
2017-05-08T08:04:47.769Z,64.30
2017-05-08T08:07:17.564Z,64.70
2017-05-08T08:09:46.601Z,64.80
2017-05-08T08:12:25.298Z,65.50
2017-05-08T08:14:55.414Z,64.70
2017-05-08T08:17:25.206Z,64.70
2017-05-08T08:19:54.238Z,65.10
2017-05-08T08:22:23.367Z,65.00
2017-05-08T08:24:52.423Z,64.90
2017-05-08T08:27:22.222Z,64.70
2017-05-08T08:29:52.047Z,63.50
2017-05-08T08:32:21.839Z,62.10
2017-05-08T08:34:51.628Z,62.40
2017-05-08T08:37:20.730Z,62.60
2017-05-08T08:39:50.725Z,63.80
2017-05-08T08:42:19.781Z,64.20
2017-05-08T08:44:48.840Z,64.30
2017-05-08T08:47:18.798Z,63.70
2017-05-08T08:49:48.713Z,62.80
2017-05-08T08:52:17.863Z,61.60
2017-05-08T08:54:46.913Z,61.30
2017-05-08T08:57:16.063Z,61.00
2017-05-08T08:59:45.843Z,61.10
2017-05-08T09:02:14.920Z,61.10
2017-05-08T09:04:43.954Z,61.10
2017-05-08T09:07:13.051Z,60.20
2017-05-08T09:09:42.098Z,60.40
2017-05-08T09:12:11.311Z,61.30
2017-05-08T09:14:40.376Z,60.30
2017-05-08T09:17:10.163Z,61.20
2017-05-08T09:19:39.936Z,61.40
2017-05-08T09:22:08.987Z,61.50
2017-05-08T09:24:38.089Z,61.40
2017-05-08T09:27:07.855Z,60.30
2017-05-08T09:29:36.932Z,60.60
2017-05-08T09:32:06.027Z,61.00
2017-05-08T09:34:35.078Z,61.00
2017-05-08T09:37:04.135Z,61.10
2017-05-08T09:39:33.197Z,62.10
2017-05-08T09:42:02.252Z,63.40
2017-05-08T09:44:31.346Z,63.40
2017-05-08T09:47:01.129Z,64.70
2017-05-08T09:49:30.241Z,64.50
2017-05-08T09:52:00.038Z,64.00
2017-05-08T09:54:29.098Z,63.60
2017-05-08T09:56:58.153Z,62.30
2017-05-08T09:59:27.954Z,62.80
2017-05-08T10:01:57.790Z,62.10
2017-05-08T10:04:27.570Z,60.20
2017-05-08T10:06:56.617Z,58.80
2017-05-08T10:09:25.674Z,59.00
2017-05-08T10:11:55.474Z,58.60
2017-05-08T10:14:24.530Z,58.50
2017-05-08T10:16:53.669Z,59.20
2017-05-08T10:19:23.485Z,59.20
2017-05-08T10:21:53.394Z,59.10
2017-05-08T10:24:23.194Z,58.80
2017-05-08T10:26:52.292Z,59.50
2017-05-08T10:29:21.325Z,60.50
2017-05-08T10:31:50.400Z,59.80
2017-05-08T10:34:20.182Z,62.30
2017-05-08T10:36:49.263Z,62.50
2017-05-08T10:39:18.308Z,62.60
2017-05-08T10:41:47.374Z,62.80
2017-05-08T10:44:16.419Z,64.70
2017-05-08T10:46:45.461Z,65.40
2017-05-08T10:49:14.512Z,67.60
2017-05-08T10:51:43.567Z,68.50
2017-05-08T10:54:13.385Z,67.20
2017-05-08T10:56:43.162Z,67.00
2017-05-08T10:59:12.241Z,67.70
2017-05-08T11:01:41.294Z,69.30
2017-05-08T11:04:10.457Z,71.30
2017-05-08T11:06:40.270Z,71.50
2017-05-08T11:09:09.352Z,71.40
2017-05-08T11:11:44.172Z,69.90
2017-05-08T11:14:13.253Z,69.70
2017-05-08T11:16:42.290Z,70.70
2017-05-08T11:19:12.090Z,71.10
2017-05-08T11:21:41.195Z,71.00
2017-05-08T11:24:10.290Z,69.70
2017-05-08T11:26:40.094Z,67.70
2017-05-08T11:29:09.155Z,66.80
2017-05-08T11:31:38.307Z,66.50
2017-05-08T11:34:08.072Z,65.70
2017-05-08T11:36:37.142Z,65.30
2017-05-08T11:39:06.173Z,65.20
2017-05-08T11:41:35.238Z,65.20
2017-05-08T11:44:04.295Z,66.30
2017-05-08T11:46:34.214Z,67.60
2017-05-08T11:49:03.996Z,68.20
2017-05-08T11:51:33.062Z,70.80
2017-05-08T11:54:02.100Z,72.80
2017-05-08T11:56:31.900Z,74.70
2017-05-08T11:59:00.940Z,74.40
2017-05-08T12:01:29.998Z,76.90
2017-05-08T12:03:59.032Z,79.50
2017-05-08T12:06:28.130Z,81.40
2017-05-08T12:08:57.162Z,80.90
2017-05-08T12:11:26.224Z,79.80
2017-05-08T12:13:55.366Z,77.60
2017-05-08T12:16:24.501Z,77.90
2017-05-08T12:18:53.537Z,75.80
2017-05-08T12:21:22.769Z,74.10
2017-05-08T12:23:51.995Z,77.30
2017-05-08T12:26:21.041Z,78.50
2017-05-08T12:28:50.120Z,78.30
2017-05-08T12:31:19.246Z,79.00
2017-05-08T12:33:49.052Z,78.50
2017-05-08T12:36:18.131Z,78.60
2017-05-08T12:38:47.225Z,80.00
2017-05-08T12:41:17.033Z,79.50
2017-05-08T12:43:46.106Z,81.60
2017-05-08T12:46:15.186Z,82.10
2017-05-08T12:48:44.233Z,80.90
2017-05-08T12:51:14.009Z,79.00
2017-05-08T12:53:43.154Z,75.70
2017-05-08T12:56:12.233Z,74.70
2017-05-08T12:58:41.302Z,73.00
2017-05-08T13:01:10.365Z,70.90
2017-05-08T13:03:39.405Z,72.60
2017-05-08T13:06:08.469Z,71.30
2017-05-08T13:08:37.527Z,71.00
2017-05-08T13:11:06.594Z,70.10
2017-05-08T13:13:35.631Z,69.20
2017-05-08T13:16:04.703Z,69.70
2017-05-08T13:18:33.752Z,72.00
2017-05-08T13:21:02.818Z,70.90
2017-05-08T13:23:31.867Z,71.90
2017-05-08T13:26:00.925Z,71.30
2017-05-08T13:28:30.180Z,72.50
2017-05-08T13:30:59.984Z,73.00
2017-05-08T13:33:29.795Z,72.50
2017-05-08T13:35:58.822Z,72.90
2017-05-08T13:38:27.891Z,73.00
2017-05-08T13:40:57.687Z,72.90
2017-05-08T13:43:26.745Z,71.40
2017-05-08T13:45:55.891Z,72.10
2017-05-08T13:48:24.921Z,71.50
2017-05-08T13:50:54.001Z,72.80
2017-05-08T13:53:23.776Z,74.90
2017-05-08T13:55:53.557Z,75.90
2017-05-08T13:58:22.620Z,76.10
2017-05-08T14:00:51.677Z,75.50
2017-05-08T14:03:21.474Z,75.20
2017-05-08T14:05:50.517Z,74.70
2017-05-08T14:08:19.565Z,74.90
2017-05-08T14:10:48.640Z,73.60
2017-05-08T14:13:17.708Z,72.70
2017-05-08T14:15:46.766Z,72.60
2017-05-08T14:18:16.574Z,71.10
2017-05-08T14:20:46.372Z,71.50
2017-05-08T14:23:15.433Z,71.70
2017-05-08T14:25:44.500Z,70.90
2017-05-08T14:28:13.561Z,70.90
2017-05-08T14:30:42.697Z,70.60
2017-05-08T14:33:11.736Z,71.70
2017-05-08T14:35:40.792Z,72.10
2017-05-08T14:38:09.846Z,72.40
2017-05-08T14:40:39.637Z,72.00
2017-05-08T14:43:09.458Z,71.80
2017-05-08T14:45:38.562Z,72.00
2017-05-08T14:48:07.609Z,71.70
2017-05-08T14:50:36.660Z,71.30
2017-05-08T14:53:06.475Z,71.40
2017-05-08T14:55:36.268Z,71.80
2017-05-08T14:58:05.299Z,72.60
2017-05-08T15:00:34.358Z,73.80
2017-05-08T15:03:03.402Z,73.10
2017-05-08T15:05:32.466Z,72.60
2017-05-08T15:08:02.248Z,71.20
2017-05-08T15:10:31.319Z,70.90
2017-05-08T15:15:35.799Z,70.50
2017-05-08T15:18:05.620Z,69.80
2017-05-08T15:20:34.690Z,69.30
2017-05-08T15:23:03.725Z,68.90
2017-05-08T15:25:32.779Z,68.90
2017-05-08T15:28:01.823Z,68.30
2017-05-08T15:30:30.871Z,67.90
2017-05-08T15:32:59.943Z,66.60
2017-05-08T15:35:29.006Z,65.50
2017-05-08T15:37:58.045Z,64.50
2017-05-08T15:40:27.346Z,63.40
2017-05-08T15:42:56.473Z,61.00
2017-05-08T15:45:26.271Z,59.80
2017-05-08T15:47:56.071Z,58.90
2017-05-08T15:50:25.138Z,58.00
2017-05-08T15:52:54.286Z,58.10
2017-05-08T15:55:24.068Z,58.20
2017-05-08T15:57:53.189Z,58.10
2017-05-08T16:00:22.968Z,56.50
2017-05-08T16:02:52.107Z,55.90
2017-05-08T16:05:22.007Z,56.50
2017-05-08T16:07:51.820Z,57.80
2017-05-08T16:10:20.890Z,58.80
2017-05-08T16:12:49.921Z,60.30
2017-05-08T16:15:18.973Z,63.20
2017-05-08T16:17:48.053Z,63.50
2017-05-08T16:20:17.193Z,64.00
2017-05-08T16:22:46.972Z,65.30
2017-05-08T16:25:16.086Z,65.00
2017-05-08T16:27:45.578Z,65.30
2017-05-08T16:30:14.615Z,66.30
2017-05-08T16:32:43.685Z,66.50
2017-05-08T16:35:13.462Z,66.90
2017-05-08T16:37:42.540Z,66.80
2017-05-08T16:40:11.589Z,67.60
2017-05-08T16:42:41.385Z,67.00
2017-05-08T16:45:10.409Z,64.50
2017-05-08T16:47:39.493Z,63.70
2017-05-08T16:50:09.301Z,63.70
2017-05-08T16:52:39.129Z,63.30
2017-05-08T16:55:08.190Z,63.00
2017-05-08T16:57:37.290Z,61.10
2017-05-08T17:00:06.323Z,59.80
2017-05-08T17:02:35.354Z,58.80
2017-05-08T17:05:04.425Z,58.10
2017-05-08T17:07:33.464Z,58.10
2017-05-08T17:10:03.277Z,59.00
2017-05-08T17:12:33.087Z,60.20
2017-05-08T17:15:02.192Z,61.60
2017-05-08T17:17:31.978Z,62.60
2017-05-08T17:20:01.048Z,63.20
2017-05-08T17:22:30.081Z,64.00
2017-05-08T17:24:59.881Z,64.50
2017-05-08T17:27:28.918Z,64.90
2017-05-08T17:29:57.989Z,65.40
2017-05-08T17:32:27.769Z,66.20
2017-05-08T17:34:56.826Z,66.70
2017-05-08T17:37:25.870Z,67.60
2017-05-08T17:39:54.955Z,67.60
2017-05-08T17:42:24.002Z,67.70
2017-05-08T17:44:53.102Z,68.80
2017-05-08T17:47:22.151Z,68.00
2017-05-08T17:49:51.206Z,68.10
2017-05-08T17:52:20.249Z,68.90
2017-05-08T17:54:50.085Z,69.40
2017-05-08T17:57:19.867Z,70.10
2017-05-08T17:59:49.009Z,69.50
2017-05-08T18:02:18.047Z,69.90
2017-05-08T18:04:47.120Z,68.80
2017-05-08T18:07:16.217Z,69.50
2017-05-08T18:09:45.260Z,69.70
2017-05-08T18:12:15.054Z,69.20
2017-05-08T18:14:45.047Z,68.40
2017-05-08T18:17:14.074Z,68.20
2017-05-08T18:19:43.904Z,68.00
2017-05-08T18:22:12.965Z,67.90
2017-05-08T18:24:42.003Z,67.90
2017-05-08T18:27:11.077Z,68.50
2017-05-08T18:29:40.863Z,68.50
2017-05-08T18:32:09.949Z,68.00
2017-05-08T18:34:38.987Z,69.10
2017-05-08T18:37:08.069Z,71.50
2017-05-08T18:39:37.853Z,72.80
2017-05-08T18:42:06.971Z,72.00
2017-05-08T18:44:36.801Z,73.00
2017-05-08T18:47:06.688Z,72.80
2017-05-08T18:49:35.749Z,73.60
2017-05-08T18:52:04.836Z,74.00
2017-05-08T18:54:33.866Z,74.00
2017-05-08T18:57:03.673Z,74.60
2017-05-08T18:59:32.733Z,75.00
2017-05-08T19:02:01.804Z,75.00
2017-05-08T19:04:30.878Z,74.60
2017-05-08T19:07:00.707Z,63.70
2017-05-08T19:09:29.773Z,58.20
2017-05-08T19:11:58.912Z,56.60
2017-05-08T19:17:02.309Z,54.40
2017-05-08T19:19:31.347Z,53.50
2017-05-08T19:22:00.381Z,52.60
2017-05-08T19:24:30.221Z,52.80
2017-05-08T19:26:59.250Z,52.40
2017-05-08T19:29:28.301Z,52.50
2017-05-08T19:31:57.360Z,52.90
2017-05-08T19:34:26.428Z,53.10
2017-05-08T19:36:55.566Z,53.30
2017-05-08T19:39:25.451Z,53.30
2017-05-08T19:41:54.527Z,52.70
2017-05-08T19:44:23.672Z,52.40
2017-05-08T19:46:52.725Z,52.70
2017-05-08T19:49:21.850Z,52.50
2017-05-08T19:51:51.766Z,52.20
2017-05-08T19:54:20.869Z,52.00
2017-05-08T19:56:50.015Z,53.20
2017-05-08T19:59:19.170Z,52.40
2017-05-08T20:01:49.051Z,52.60
2017-05-08T20:04:18.894Z,52.60
2017-05-08T20:06:47.988Z,53.00
2017-05-08T20:09:17.073Z,52.70
2017-05-08T20:11:46.870Z,53.50
2017-05-08T20:14:16.676Z,53.80
2017-05-08T20:16:45.737Z,53.80
2017-05-08T20:19:15.669Z,54.40
2017-05-08T20:21:44.708Z,54.80
2017-05-08T20:24:13.769Z,54.90
2017-05-08T20:26:42.870Z,55.50
2017-05-08T20:29:12.049Z,56.00
2017-05-08T20:31:41.105Z,56.40
2017-05-08T20:34:10.199Z,56.60
2017-05-08T20:36:39.222Z,57.00
2017-05-08T20:39:08.279Z,57.00
2017-05-08T20:41:37.322Z,57.30
2017-05-08T20:44:06.365Z,57.70
2017-05-08T20:46:35.425Z,57.70
2017-05-08T20:49:04.477Z,58.00
2017-05-08T20:51:33.541Z,58.10
2017-05-08T20:54:02.608Z,57.80
2017-05-08T20:56:32.486Z,58.30
2017-05-08T20:59:01.535Z,58.20
2017-05-08T21:01:31.345Z,58.50
2017-05-08T21:04:01.136Z,58.80
2017-05-08T21:06:30.183Z,59.80
2017-05-08T21:08:59.203Z,60.00
2017-05-08T21:11:28.262Z,59.40
2017-05-08T21:13:57.299Z,60.00
2017-05-08T21:16:26.342Z,59.90
2017-05-08T21:18:56.133Z,60.30
2017-05-08T21:21:25.929Z,62.50
2017-05-08T21:23:54.983Z,59.80
2017-05-08T21:26:24.002Z,60.20
2017-05-08T21:28:53.047Z,60.60
2017-05-08T21:31:22.079Z,60.00
2017-05-08T21:33:51.135Z,60.30
2017-05-08T21:36:20.182Z,62.20
2017-05-08T21:38:49.240Z,61.50
2017-05-08T21:41:18.316Z,60.30
2017-05-08T21:43:48.125Z,60.80
2017-05-08T21:46:17.145Z,61.60
2017-05-08T21:48:46.165Z,61.00
2017-05-08T21:51:15.213Z,60.50
2017-05-08T21:53:44.278Z,60.80
2017-05-08T21:56:13.378Z,60.30
2017-05-08T21:58:43.142Z,62.20
2017-05-08T22:01:12.214Z,61.70
2017-05-08T22:03:41.285Z,61.00
2017-05-08T22:06:11.041Z,60.30
2017-05-08T22:08:40.088Z,61.30
2017-05-08T22:11:09.849Z,60.10
2017-05-08T22:13:38.891Z,61.00
2017-05-08T22:16:08.661Z,60.00
2017-05-08T22:18:37.700Z,60.90
2017-05-08T22:21:07.495Z,59.80
2017-05-08T22:23:36.554Z,61.10
2017-05-08T22:26:05.609Z,61.30
2017-05-08T22:28:34.673Z,60.70
2017-05-08T22:31:03.698Z,59.70
2017-05-08T22:33:33.501Z,59.50
2017-05-08T22:36:03.269Z,60.50
2017-05-08T22:38:32.393Z,61.00
2017-05-08T22:41:01.450Z,59.60
2017-05-08T22:43:30.482Z,58.70
2017-05-08T22:45:59.529Z,58.70
2017-05-08T22:48:28.549Z,58.50
2017-05-08T22:50:57.590Z,58.20
2017-05-08T22:53:26.621Z,58.20
2017-05-08T22:55:55.661Z,58.30
2017-05-08T22:58:25.426Z,58.10
2017-05-08T23:00:54.491Z,58.10
2017-05-08T23:03:23.848Z,57.80
2017-05-08T23:05:52.862Z,57.60
2017-05-08T23:08:23.352Z,58.50
2017-05-08T23:10:52.370Z,58.10
2017-05-08T23:13:21.424Z,58.60
2017-05-08T23:15:50.443Z,58.90
2017-05-08T23:18:19.485Z,58.00
2017-05-08T23:20:48.534Z,58.70
2017-05-08T23:23:17.569Z,57.80
2017-05-08T23:25:46.591Z,58.40
2017-05-08T23:28:15.655Z,57.90
2017-05-08T23:30:44.695Z,58.20
2017-05-08T23:33:13.728Z,59.00
2017-05-08T23:35:43.501Z,58.80
2017-05-08T23:38:12.550Z,59.40
2017-05-08T23:40:41.587Z,60.40
2017-05-08T23:43:10.633Z,61.00
2017-05-08T23:45:39.676Z,61.30
2017-05-08T23:48:08.805Z,61.10
2017-05-08T23:50:37.894Z,61.30
2017-05-08T23:53:06.925Z,61.60
2017-05-08T23:55:35.957Z,61.30
2017-05-08T23:58:04.980Z,61.80
